Time;durP1;ratioP1;P1;durP2;ratioP2;P2;SDS_P1;SDS_P2;PMS_P1;PMS_P2;Temp;Humidity;BMP_temperature;BMP_pressure;BME280_temperature;BME280_humidity;BME280_pressure;Samples;Min_cycle;Max_cycle;Signal;HPM_P1;HPM_P2
2021/12/05 00:17:36;;;;;;;36.60;21.90;;;153.90;1894.40;;;;;;4946159;29;20041;-56
2021/12/05 00:22:41;;;;;;;45.92;24.33;;;154.00;1843.20;;;;;;4956263;29;20087;-56
2021/12/05 00:25:10;;;;;;;42.00;22.42;;;153.90;1894.40;;;;;;4968248;28;20060;-56
2021/12/05 00:27:44;;;;;;;40.42;22.88;;;154.00;1868.80;;;;;;5035694;28;20068;-56
2021/12/05 00:31:01;;;;;;;35.05;21.13;;;153.90;1843.20;;;;;;5036324;28;20463;-56
2021/12/05 00:33:35;;;;;;;38.67;22.23;;;153.90;1894.40;;;;;;5035588;28;20129;-56
2021/12/05 01:05:19;;;;;;;31.02;19.05;;;154.00;1920.00;;;;;;5035285;28;20029;-56
2021/12/05 01:08:06;;;;;;;30.38;19.88;;;154.10;1868.80;;;;;;5036935;28;20056;-56
2021/12/05 01:15:39;;;;;;;32.85;19.55;;;154.00;1868.80;;;;;;5055361;28;20052;-56
2021/12/05 01:18:09;;;;;;;34.55;20.55;;;154.10;1894.40;;;;;;5055048;28;20032;-56
2021/12/05 01:20:40;;;;;;;29.02;19.40;;;154.10;1920.00;;;;;;5054980;28;20028;-56
2021/12/05 01:26:00;;;;;;;34.58;19.70;;;154.10;1894.40;;;;;;5054964;28;20061;-56
2021/12/05 01:31:19;;;;;;;31.77;19.90;;;154.20;1868.80;;;;;;5054774;28;20028;-56
2021/12/05 01:52:08;;;;;;;30.13;19.00;;;154.20;1894.40;;;;;;5054457;28;20036;-56
2021/12/05 02:32:50;;;;;;;27.67;18.20;;;154.40;1868.80;;;;;;5053830;28;20060;-56
2021/12/05 02:42:36;;;;;;;25.70;16.70;;;154.40;1868.80;;;;;;5052353;28;20074;-56
2021/12/05 02:45:06;;;;;;;27.17;16.67;;;154.50;1843.20;;;;;;5051774;28;20041;-56
2021/12/05 02:47:32;;;;;;;27.58;16.88;;;154.50;1868.80;;;;;;5051594;28;20029;-56
2021/12/05 02:50:04;;;;;;;26.10;16.40;;;179.20;1894.40;;;;;;5033900;28;20363;-56
2021/12/05 02:52:34;;;;;;;25.65;16.27;;;179.20;1868.80;;;;;;5049708;28;20379;-56
2021/12/05 02:55:09;;;;;;;26.20;16.45;;;179.20;1843.20;;;;;;5033780;28;20503;-56
2021/12/05 02:57:50;;;;;;;26.10;16.92;;;179.20;1843.20;;;;;;5050142;28;20079;-56
2021/12/05 03:00:57;;;;;;;23.73;15.75;;;179.20;1843.20;;;;;;5050508;28;20390;-55
2021/12/05 03:03:25;;;;;;;23.83;15.80;;;154.50;1843.20;;;;;;5051923;28;20086;-56
2021/12/05 03:05:58;;;;;;;26.45;16.73;;;154.50;1868.80;;;;;;5051645;28;20028;-56
2021/12/05 03:08:24;;;;;;;27.73;16.95;;;154.40;1868.80;;;;;;5051785;28;20506;-56
2021/12/05 03:10:50;;;;;;;25.92;17.35;;;154.50;1894.40;;;;;;5053606;28;20031;-55
2021/12/05 03:13:16;;;;;;;25.85;16.77;;;154.50;1920.00;;;;;;5054435;28;20029;-56
2021/12/05 03:15:42;;;;;;;24.67;15.80;;;179.20;1920.00;;;;;;5053270;28;20025;-56
2021/12/05 03:18:08;;;;;;;26.85;17.30;;;179.20;1894.40;;;;;;5053247;28;20033;-56
2021/12/05 03:20:34;;;;;;;23.98;16.25;;;179.30;1894.40;;;;;;5053403;28;20025;-56
2021/12/05 03:23:00;;;;;;;25.63;17.10;;;179.30;1868.80;;;;;;5053341;28;20462;-57
2021/12/05 03:25:26;;;;;;;23.60;15.00;;;179.30;1843.20;;;;;;5053498;28;20051;-56
2021/12/05 03:27:52;;;;;;;23.05;15.52;;;179.30;1894.40;;;;;;5053265;28;20079;-56
2021/12/05 03:30:22;;;;;;;25.80;16.80;;;179.30;1868.80;;;;;;5034845;28;20036;-56
2021/12/05 03:32:50;;;;;;;26.48;16.05;;;179.40;1868.80;;;;;;5053069;28;20041;-56
2021/12/05 03:35:18;;;;;;;23.00;15.10;;;179.40;1894.40;;;;;;5055067;28;20028;-56
2021/12/05 03:37:47;;;;;;;26.48;15.57;;;179.40;1894.40;;;;;;5057022;28;20146;-56
2021/12/05 03:40:13;;;;;;;26.83;16.15;;;179.40;1868.80;;;;;;5056848;28;20029;-56
2021/12/05 03:42:39;;;;;;;25.63;16.25;;;179.40;1894.40;;;;;;5057447;28;20390;-56
2021/12/05 03:45:12;;;;;;;25.98;15.85;;;179.50;1868.80;;;;;;5057017;28;20090;-57
2021/12/05 03:47:38;;;;;;;24.60;15.73;;;179.50;1894.40;;;;;;5056949;28;20051;-56
2021/12/05 03:50:11;;;;;;;25.17;17.38;;;179.50;1894.40;;;;;;5056806;28;20451;-56
2021/12/05 03:52:37;;;;;;;50.15;17.50;;;179.50;1868.80;;;;;;5056779;28;20183;-56
2021/12/05 03:55:05;;;;;;;31.52;17.23;;;179.50;1894.40;;;;;;5037865;28;20083;-56
2021/12/05 03:57:31;;;;;;;28.10;14.90;;;179.50;1894.40;;;;;;5056582;28;20033;-56
2021/12/05 03:59:56;;;;;;;28.15;15.95;;;179.50;1868.80;;;;;;5038686;28;20175;-56
2021/12/05 04:02:22;;;;;;;25.17;16.58;;;179.50;1894.40;;;;;;5056627;28;20029;-57
2021/12/05 04:04:50;;;;;;;24.85;15.93;;;179.60;1894.40;;;;;;5056488;28;20412;-57
2021/12/05 04:07:16;;;;;;;26.50;15.88;;;179.50;1868.80;;;;;;5037739;28;20087;-56
2021/12/05 04:09:44;;;;;;;26.13;15.05;;;179.50;1920.00;;;;;;5055113;28;20095;-56
2021/12/05 04:12:10;;;;;;;26.83;16.73;;;179.50;1868.80;;;;;;5055019;28;20040;-56
2021/12/05 04:14:39;;;;;;;24.08;16.15;;;179.50;1868.80;;;;;;5054891;28;20020;-56
2021/12/05 04:17:09;;;;;;;27.65;15.30;;;179.50;1894.40;;;;;;5055241;28;20471;-56
2021/12/05 04:19:36;;;;;;;27.30;16.25;;;179.40;1894.40;;;;;;5054502;28;20021;-56
2021/12/05 04:22:03;;;;;;;25.27;15.68;;;179.40;1894.40;;;;;;5055148;28;20025;-56
2021/12/05 04:24:29;;;;;;;28.05;16.77;;;179.40;1920.00;;;;;;5054922;28;20033;-56
2021/12/05 04:26:55;;;;;;;22.58;15.32;;;179.30;1894.40;;;;;;5037118;28;20039;-56
2021/12/05 04:29:21;;;;;;;22.40;14.65;;;179.40;1894.40;;;;;;5054879;28;20049;-56
2021/12/05 04:31:47;;;;;;;25.55;15.10;;;179.40;1920.00;;;;;;5054957;28;20041;-56
2021/12/05 04:34:14;;;;;;;29.95;17.88;;;179.40;1868.80;;;;;;5054908;28;20047;-56
2021/12/05 04:36:41;;;;;;;27.33;17.30;;;179.40;1920.00;;;;;;5055385;28;20040;-57
2021/12/05 04:39:07;;;;;;;25.35;15.88;;;179.40;1894.40;;;;;;5054694;28;20383;-56
2021/12/05 04:41:33;;;;;;;23.92;15.02;;;179.50;1894.40;;;;;;5036777;28;20037;-56
2021/12/05 04:44:01;;;;;;;23.35;14.70;;;179.50;1894.40;;;;;;5054551;28;20029;-57
2021/12/05 04:46:27;;;;;;;23.15;15.35;;;179.50;1894.40;;;;;;5054817;28;20375;-57
2021/12/05 04:48:54;;;;;;;25.85;14.15;;;179.50;1894.40;;;;;;5054756;28;20033;-56
2021/12/05 04:51:23;;;;;;;21.80;14.63;;;179.50;1894.40;;;;;;5054648;28;20060;-56
2021/12/05 04:53:50;;;;;;;21.90;14.50;;;179.40;1894.40;;;;;;5054527;28;20021;-56
2021/12/05 04:56:16;;;;;;;23.17;14.25;;;179.40;1894.40;;;;;;5054432;28;20036;-57
2021/12/05 04:58:42;;;;;;;24.60;13.57;;;179.40;1920.00;;;;;;5054330;28;20467;-56
2021/12/05 05:01:08;;;;;;;21.45;13.80;;;179.40;1894.40;;;;;;5054314;28;20029;-56
2021/12/05 05:03:35;;;;;;;26.88;15.02;;;179.40;1920.00;;;;;;5054428;28;20039;-56
2021/12/05 05:06:08;;;;;;;19.65;14.13;;;179.40;1920.00;;;;;;5054442;28;20095;-56
2021/12/05 05:08:34;;;;;;;23.75;14.80;;;179.40;1894.40;;;;;;5009923;28;1285259;-56
2021/12/05 05:11:03;;;;;;;22.90;14.48;;;179.40;1920.00;;;;;;5055327;28;20057;-57
2021/12/05 05:13:30;;;;;;;22.70;14.25;;;179.50;1894.40;;;;;;5055338;28;20476;-56
2021/12/05 05:15:56;;;;;;;24.42;14.85;;;179.50;1894.40;;;;;;5037345;28;20033;-56
2021/12/05 05:18:25;;;;;;;18.95;13.23;;;179.50;1920.00;;;;;;5055200;28;20497;-56
2021/12/05 05:21:06;;;;;;;22.65;13.82;;;179.50;1894.40;;;;;;5055387;28;20025;-56
2021/12/05 05:23:45;;;;;;;22.50;14.65;;;179.50;1894.40;;;;;;5055080;28;20025;-56
2021/12/05 05:52:18;;;;;;;25.98;14.65;;;179.70;1920.00;;;;;;4973732;28;20045;-56
2021/12/05 05:54:46;;;;;;;19.85;14.23;;;179.60;1920.00;;;;;;4973892;28;20065;-56
2021/12/05 05:57:26;;;;;;;26.08;14.55;;;179.60;1920.00;;;;;;4973159;28;20106;-56
2021/12/05 06:00:18;;;;;;;24.13;14.90;;;179.60;1920.00;;;;;;4973908;28;20027;-56
2021/12/05 06:05:26;;;;;;;23.40;15.93;;;179.60;1920.00;;;;;;4973856;28;20581;-56
2021/12/05 06:07:52;;;;;;;25.27;15.40;;;179.60;1920.00;;;;;;4976578;28;20057;-56
2021/12/05 06:10:23;;;;;;;26.60;16.00;;;179.50;1920.00;;;;;;4992709;28;20101;-56
2021/12/05 06:12:49;;;;;;;27.65;16.60;;;179.60;1945.60;;;;;;4992509;28;20039;-56
2021/12/05 06:15:17;;;;;;;29.58;17.83;;;179.60;1945.60;;;;;;4993170;28;20035;-56
2021/12/05 06:17:43;;;;;;;26.80;17.23;;;179.60;1920.00;;;;;;4992645;28;20443;-56
2021/12/05 06:20:13;;;;;;;44.28;20.88;;;179.60;1945.60;;;;;;4977182;28;20039;-57
2021/12/05 06:22:39;;;;;;;41.25;20.25;;;179.60;1920.00;;;;;;5074147;28;20036;-56
2021/12/05 06:25:09;;;;;;;32.53;18.40;;;179.60;1945.60;;;;;;5074156;28;20096;-56
2021/12/05 06:27:35;;;;;;;29.08;17.15;;;179.60;1945.60;;;;;;5073867;28;20462;-56
2021/12/05 06:30:15;;;;;;;29.40;17.10;;;179.60;1920.00;;;;;;5073851;28;20154;-56
2021/12/05 06:46:18;;;;;;;26.45;16.15;;;179.70;1945.60;;;;;;5012043;28;20372;-57
2021/12/05 06:48:46;;;;;;;28.55;15.60;;;179.70;1945.60;;;;;;5012039;28;20053;-56
2021/12/05 06:51:14;;;;;;;25.88;16.20;;;179.70;1945.60;;;;;;5011699;28;20021;-57
2021/12/05 06:53:40;;;;;;;31.30;17.73;;;179.70;1945.60;;;;;;4996462;28;20066;-56
2021/12/05 06:56:07;;;;;;;33.60;18.27;;;179.70;1945.60;;;;;;5011901;28;20041;-57
2021/12/05 06:58:34;;;;;;;27.65;17.02;;;179.80;1920.00;;;;;;5011797;28;20514;-56
2021/12/05 07:01:01;;;;;;;29.42;17.48;;;179.70;1945.60;;;;;;5011709;28;20056;-56
2021/12/05 07:03:27;;;;;;;31.30;17.55;;;179.70;1971.20;;;;;;5011812;28;20038;-57
2021/12/05 07:08:26;;;;;;;28.00;16.17;;;179.70;1971.20;;;;;;5011626;28;20042;-57
2021/12/05 07:18:59;;;;;;;24.55;14.70;;;179.80;1971.20;;;;;;5015881;28;20033;-56
2021/12/05 07:21:35;;;;;;;23.95;15.25;;;179.80;1945.60;;;;;;5063881;28;20041;-57
2021/12/05 07:40:28;;;;;;;29.58;18.23;;;179.80;1971.20;;;;;;5015542;28;20092;-56
2021/12/05 07:42:57;;;;;;;29.05;16.58;;;179.80;1945.60;;;;;;5015257;28;20396;-57
2021/12/05 07:45:32;;;;;;;26.58;16.52;;;179.80;1996.80;;;;;;5015281;28;20030;-56
2021/12/05 07:48:04;;;;;;;24.80;17.15;;;179.90;1971.20;;;;;;5015202;28;20056;-57
2021/12/05 07:50:41;;;;;;;23.55;15.63;;;179.90;1945.60;;;;;;5015029;28;20032;-56
2021/12/05 07:53:15;;;;;;;26.40;16.27;;;179.80;1996.80;;;;;;5014937;28;20050;-57
2021/12/05 07:55:43;;;;;;;26.05;16.35;;;179.90;1971.20;;;;;;5015462;28;20491;-60
2021/12/05 08:00:48;;;;;;;29.65;17.00;;;179.90;1996.80;;;;;;5014833;28;20030;-57
2021/12/05 08:16:56;;;;;;;30.20;20.05;;;205.10;1996.80;;;;;;5076512;28;20095;-56
2021/12/05 08:19:22;;;;;;;34.63;20.42;;;204.90;1996.80;;;;;;5076120;28;20438;-56
2021/12/05 08:21:55;;;;;;;34.15;20.83;;;204.90;1996.80;;;;;;5075896;28;20113;-56
2021/12/05 08:24:23;;;;;;;33.53;20.95;;;204.90;2022.40;;;;;;5076150;28;20115;-56
2021/12/05 08:26:51;;;;;;;30.55;20.10;;;204.80;2022.40;;;;;;5075878;28;20028;-57
2021/12/05 08:29:22;;;;;;;28.60;17.60;;;204.80;2022.40;;;;;;5076426;28;20103;-57
2021/12/05 08:37:09;;;;;;;33.55;20.35;;;180.10;2048.00;;;;;;5076480;28;20523;-56
2021/12/05 09:23:19;;;;;;;46.30;26.38;;;180.00;2124.80;;;;;;5075004;28;20489;-57
2021/12/05 09:28:21;;;;;;;44.42;25.02;;;180.00;2124.80;;;;;;5074922;28;20024;-56
2021/12/05 09:31:00;;;;;;;41.35;23.60;;;180.00;2124.80;;;;;;5074748;28;20094;-57
2021/12/05 10:33:46;;;;;;;61.50;38.67;;;205.50;2073.60;;;;;;5061432;28;20371;-57
2021/12/05 10:36:25;;;;;;;73.88;45.10;;;205.40;2099.20;;;;;;5063515;28;20027;-58
2021/12/05 10:38:54;;;;;;;73.32;41.30;;;205.40;2099.20;;;;;;5073714;28;20040;-56
2021/12/05 10:43:59;;;;;;;47.67;28.80;;;205.40;2099.20;;;;;;5073530;28;20025;-57
2021/12/05 10:46:27;;;;;;;41.63;26.17;;;205.40;2099.20;;;;;;5073786;28;20032;-57
2021/12/05 10:49:05;;;;;;;42.55;25.70;;;205.40;2099.20;;;;;;5073721;28;20032;-58
2021/12/05 10:51:37;;;;;;;55.22;29.83;;;205.40;2099.20;;;;;;5073764;28;20124;-59
2021/12/05 10:54:07;;;;;;;82.32;40.10;;;205.40;2099.20;;;;;;5073649;28;20028;-58
2021/12/05 10:56:41;;;;;;;88.85;40.75;;;205.40;2099.20;;;;;;5073739;28;20478;-58
2021/12/05 10:59:12;;;;;;;105.13;49.05;;;205.40;2099.20;;;;;;5073593;28;20017;-57
2021/12/05 11:01:50;;;;;;;83.57;40.17;;;205.40;2099.20;;;;;;5073086;28;20112;-58
2021/12/05 11:04:29;;;;;;;72.60;38.50;;;205.30;2099.20;;;;;;5073472;28;20021;-57
2021/12/05 11:06:56;;;;;;;51.60;27.73;;;205.30;2099.20;;;;;;5073473;28;20099;-58
2021/12/05 11:09:33;;;;;;;46.83;27.67;;;205.40;2099.20;;;;;;5073423;28;20075;-57
2021/12/05 11:12:00;;;;;;;61.67;29.48;;;205.30;2099.20;;;;;;5073258;28;20135;-58
2021/12/05 11:14:32;;;;;;;65.30;31.90;;;205.30;2099.20;;;;;;5073577;28;20078;-57
2021/12/05 11:17:13;;;;;;;87.50;38.47;;;205.30;2099.20;;;;;;5073380;28;20031;-58
2021/12/05 11:19:48;;;;;;;73.90;35.25;;;205.30;2099.20;;;;;;5073337;28;20097;-57
2021/12/05 11:22:40;;;;;;;77.30;36.78;;;205.30;2099.20;;;;;;5073179;28;20035;-57
2021/12/05 11:25:10;;;;;;;61.00;31.13;;;205.30;2099.20;;;;;;5068944;28;20033;-60
2021/12/05 11:27:39;;;;;;;75.00;34.10;;;205.30;2124.80;;;;;;5072796;28;20025;-57
2021/12/05 11:30:09;;;;;;;41.08;23.67;;;205.30;2099.20;;;;;;5073333;28;20470;-58
2021/12/05 11:33:02;;;;;;;37.45;20.85;;;205.30;2099.20;;;;;;5073086;28;20032;-60
2021/12/05 11:35:42;;;;;;;31.15;18.17;;;205.40;2099.20;;;;;;5073574;28;20025;-59
2021/12/05 11:38:13;;;;;;;49.15;23.63;;;205.40;2099.20;;;;;;5073077;28;20082;-57
2021/12/05 11:40:58;;;;;;;49.92;27.52;;;205.40;2099.20;;;;;;5073646;28;20024;-57
2021/12/05 11:43:39;;;;;;;41.47;22.48;;;205.40;2124.80;;;;;;5073082;28;20089;-59
2021/12/05 11:46:13;;;;;;;34.20;19.45;;;205.30;2124.80;;;;;;5073257;28;20025;-57
2021/12/05 11:49:10;;;;;;;32.72;19.73;;;205.30;2124.80;;;;;;5073139;28;20031;-57
2021/12/05 11:51:44;;;;;;;35.92;19.60;;;205.30;2124.80;;;;;;4991706;28;20057;-57
2021/12/05 11:54:12;;;;;;;32.15;18.83;;;205.30;2124.80;;;;;;4991730;28;20034;-57
2021/12/05 11:56:49;;;;;;;33.53;20.75;;;205.30;2124.80;;;;;;4994004;28;20484;-57
2021/12/05 11:59:20;;;;;;;34.53;20.08;;;205.30;2124.80;;;;;;4995414;28;20042;-57
2021/12/05 12:01:48;;;;;;;29.60;17.98;;;205.30;2124.80;;;;;;4995053;28;20126;-59
2021/12/05 12:04:17;;;;;;;33.85;19.60;;;205.40;2124.80;;;;;;4994777;28;20041;-57
2021/12/05 12:06:46;;;;;;;27.42;17.45;;;205.40;2124.80;;;;;;4995164;28;20033;-57
2021/12/05 12:09:12;;;;;;;31.88;18.70;;;205.40;2124.80;;;;;;4994939;28;20047;-57
2021/12/05 12:11:38;;;;;;;28.63;18.20;;;205.40;2124.80;;;;;;4978856;28;20190;-57
2021/12/05 12:14:05;;;;;;;26.60;16.48;;;205.40;2150.40;;;;;;4995085;28;20154;-57
2021/12/05 12:16:33;;;;;;;25.15;16.27;;;205.40;2150.40;;;;;;4994656;28;20361;-57
2021/12/05 12:19:01;;;;;;;25.85;16.30;;;205.40;2150.40;;;;;;4994901;28;20029;-57
2021/12/05 12:21:41;;;;;;;24.00;15.20;;;205.50;2150.40;;;;;;4994953;28;20122;-58
2021/12/05 12:24:10;;;;;;;31.40;18.33;;;205.50;2150.40;;;;;;4994918;28;20066;-57
2021/12/05 12:26:37;;;;;;;32.17;18.45;;;205.60;2150.40;;;;;;4994912;28;20035;-57
2021/12/05 12:29:04;;;;;;;32.03;18.77;;;205.60;2150.40;;;;;;5036649;28;20067;-57
2021/12/05 12:31:36;;;;;;;30.05;17.88;;;205.60;2150.40;;;;;;5076215;28;20054;-57
2021/12/05 12:34:06;;;;;;;30.77;17.55;;;205.60;2124.80;;;;;;5075911;28;20123;-58
2021/12/05 12:36:38;;;;;;;28.30;18.20;;;205.60;2150.40;;;;;;5076137;28;20024;-57
2021/12/05 12:39:26;;;;;;;30.73;17.27;;;205.60;2150.40;;;;;;5076184;28;20035;-57
2021/12/05 12:42:26;;;;;;;35.03;17.30;;;205.60;2150.40;;;;;;5075669;28;20024;-60
2021/12/05 12:44:59;;;;;;;31.85;17.63;;;205.70;2150.40;;;;;;4997623;28;20076;-61
2021/12/05 12:47:31;;;;;;;30.58;18.23;;;205.70;2124.80;;;;;;4996693;28;20038;-58
2021/12/05 12:50:19;;;;;;;25.15;16.25;;;205.70;2124.80;;;;;;4998930;28;20060;-58
2021/12/05 12:53:02;;;;;;;25.85;16.70;;;205.60;2099.20;;;;;;4996681;28;20038;-58
2021/12/05 12:55:33;;;;;;;25.92;15.55;;;205.60;2099.20;;;;;;4997017;28;20169;-59
2021/12/05 12:58:03;;;;;;;24.67;17.45;;;205.60;2099.20;;;;;;5000292;28;20481;-61
2021/12/05 13:00:31;;;;;;;23.58;15.65;;;205.60;2099.20;;;;;;4995575;28;20190;-56
2021/12/05 13:03:00;;;;;;;25.98;16.80;;;205.60;2099.20;;;;;;4995816;28;20029;-56
2021/12/05 13:11:04;;;;;;;33.15;16.58;;;205.60;2099.20;;;;;;4998711;28;20032;-57
2021/12/05 13:13:32;;;;;;;30.77;18.35;;;205.60;2099.20;;;;;;4994650;28;20396;-57
2021/12/05 13:16:14;;;;;;;29.90;16.83;;;205.50;2099.20;;;;;;4991567;28;20027;-57
2021/12/05 13:18:42;;;;;;;31.02;18.27;;;205.50;2099.20;;;;;;4998625;28;20026;-58
2021/12/05 13:21:17;;;;;;;34.55;19.27;;;205.50;2099.20;;;;;;5064911;28;20063;-57
2021/12/05 13:23:50;;;;;;;31.02;18.75;;;205.50;2099.20;;;;;;5062484;28;20028;-57
2021/12/05 13:26:23;;;;;;;31.48;18.10;;;205.50;2099.20;;;;;;5061597;28;20026;-58
2021/12/05 13:28:58;;;;;;;26.48;16.65;;;205.50;2099.20;;;;;;5061423;28;20021;-57
2021/12/05 13:31:27;;;;;;;30.98;19.10;;;205.50;2124.80;;;;;;5062553;28;20035;-58
2021/12/05 13:34:14;;;;;;;38.05;24.70;;;205.50;2099.20;;;;;;5061218;28;20445;-56
2021/12/05 13:36:41;;;;;;;36.30;23.48;;;205.50;2124.80;;;;;;5082368;28;20024;-57
2021/12/05 13:39:44;;;;;;;44.80;23.92;;;205.50;2124.80;;;;;;5082419;28;20458;-58
2021/12/05 13:42:12;;;;;;;36.45;19.23;;;205.60;2124.80;;;;;;5019176;28;20088;-58
2021/12/05 13:44:59;;;;;;;24.98;16.23;;;205.60;2124.80;;;;;;5016766;28;20034;-56
2021/12/05 13:47:45;;;;;;;29.88;17.27;;;205.50;2099.20;;;;;;5019026;28;20034;-58
2021/12/05 13:50:21;;;;;;;30.80;17.60;;;205.60;2099.20;;;;;;5020409;28;20132;-57
2021/12/05 13:53:01;;;;;;;28.35;16.80;;;205.60;2099.20;;;;;;5019112;28;20045;-57
2021/12/05 13:55:53;;;;;;;29.92;16.02;;;205.60;2124.80;;;;;;5019339;28;20046;-57
2021/12/05 13:58:35;;;;;;;33.70;22.00;;;205.70;2099.20;;;;;;5016543;28;20507;-58
2021/12/05 14:01:26;;;;;;;43.42;19.80;;;205.70;2099.20;;;;;;5017438;28;20041;-57
2021/12/05 14:03:56;;;;;;;24.80;15.63;;;205.70;2124.80;;;;;;5020501;28;20030;-57
2021/12/05 14:06:23;;;;;;;25.00;15.63;;;205.70;2124.80;;;;;;5019537;28;20467;-57
2021/12/05 14:08:49;;;;;;;26.90;15.25;;;205.70;2124.80;;;;;;5019230;28;20038;-57
2021/12/05 14:11:15;;;;;;;25.52;15.77;;;205.70;2124.80;;;;;;5021082;28;20028;-56
2021/12/05 14:13:41;;;;;;;25.85;16.17;;;205.70;2099.20;;;;;;5020225;28;20029;-56
2021/12/05 14:16:07;;;;;;;22.55;14.77;;;205.70;2099.20;;;;;;5048857;28;20093;-60
2021/12/05 14:18:33;;;;;;;28.65;17.55;;;205.70;2124.80;;;;;;5062528;28;20029;-57
2021/12/05 14:21:23;;;;;;;37.33;22.05;;;205.70;2099.20;;;;;;5065024;28;20016;-58
2021/12/05 14:23:54;;;;;;;35.05;20.20;;;205.70;2099.20;;;;;;5061952;28;20363;-56
2021/12/05 14:26:22;;;;;;;35.38;20.45;;;205.70;2124.80;;;;;;5063576;28;20383;-57
2021/12/05 14:28:58;;;;;;;28.20;18.23;;;205.70;2124.80;;;;;;5058180;28;20020;-56
2021/12/05 14:31:29;;;;;;;28.13;17.52;;;205.70;2099.20;;;;;;5063182;28;20094;-57
2021/12/05 14:33:55;;;;;;;32.17;17.55;;;205.70;2099.20;;;;;;5061949;28;20096;-60
2021/12/05 14:36:28;;;;;;;23.27;16.35;;;205.70;2124.80;;;;;;5061230;28;20032;-59
2021/12/05 14:39:11;;;;;;;24.08;15.60;;;205.70;2124.80;;;;;;5064980;28;20029;-59
2021/12/05 14:41:39;;;;;;;26.33;16.73;;;205.70;2099.20;;;;;;5077275;28;20085;-57
2021/12/05 14:44:05;;;;;;;26.00;15.52;;;205.70;2099.20;;;;;;5083129;28;20029;-57
2021/12/05 14:46:31;;;;;;;27.08;17.75;;;205.70;2124.80;;;;;;5082920;28;20036;-60
2021/12/05 14:49:02;;;;;;;28.63;17.65;;;205.70;2124.80;;;;;;5058309;28;20066;-58
2021/12/05 14:51:39;;;;;;;27.85;17.27;;;205.70;2099.20;;;;;;5061078;28;20033;-60
2021/12/05 14:54:05;;;;;;;28.73;18.13;;;205.70;2099.20;;;;;;5042326;28;20032;-58
2021/12/05 14:56:36;;;;;;;26.23;15.55;;;205.70;2124.80;;;;;;5062369;28;20037;-63
2021/12/05 14:59:08;;;;;;;22.75;14.35;;;205.70;2124.80;;;;;;5062510;28;20074;-57
2021/12/05 15:01:35;;;;;;;27.02;14.57;;;205.70;2124.80;;;;;;5054987;28;20025;-60
2021/12/05 15:04:02;;;;;;;19.85;12.85;;;205.70;2124.80;;;;;;5060054;28;20454;-60
2021/12/05 15:06:39;;;;;;;20.73;13.23;;;205.70;2099.20;;;;;;5061288;28;20460;-59
2021/12/05 15:09:14;;;;;;;23.77;14.10;;;205.70;2124.80;;;;;;5077752;28;20037;-58
2021/12/05 15:11:47;;;;;;;24.05;14.85;;;205.70;2124.80;;;;;;5080450;28;20546;-57
2021/12/05 15:14:12;;;;;;;22.83;14.95;;;205.70;2124.80;;;;;;5080709;28;20039;-67
2021/12/05 15:17:01;;;;;;;24.25;14.18;;;230.40;2099.20;;;;;;5083591;28;20021;-59
2021/12/05 15:19:27;;;;;;;29.10;15.63;;;205.70;2099.20;;;;;;5061006;28;20104;-56
2021/12/05 15:21:54;;;;;;;25.33;15.02;;;205.70;2099.20;;;;;;5061902;28;20029;-58
2021/12/05 15:24:22;;;;;;;20.98;14.43;;;205.70;2099.20;;;;;;5062722;28;20024;-58
2021/12/05 15:26:49;;;;;;;25.08;14.80;;;205.70;2073.60;;;;;;5061223;28;20029;-57
2021/12/05 15:29:15;;;;;;;558.33;48.15;;;230.40;2099.20;;;;;;5061304;28;20035;-59
2021/12/05 15:31:43;;;;;;;188.63;26.08;;;230.40;2099.20;;;;;;5065284;28;20107;-57
2021/12/05 15:34:24;;;;;;;60.03;14.80;;;230.50;2099.20;;;;;;5064681;28;20120;-57
2021/12/05 15:36:51;;;;;;;26.15;13.45;;;230.40;2073.60;;;;;;5065490;28;20048;-60
2021/12/05 15:39:21;;;;;;;22.88;12.82;;;230.50;2073.60;;;;;;5057740;28;20112;-58
2021/12/05 15:41:49;;;;;;;22.17;13.52;;;230.40;2099.20;;;;;;5057098;28;20374;-60
2021/12/05 15:44:44;;;;;;;23.08;12.57;;;230.40;2099.20;;;;;;5038390;28;20422;-64
2021/12/05 15:47:16;;;;;;;28.60;14.02;;;230.40;2073.60;;;;;;4976124;28;20547;-60
2021/12/05 15:49:55;;;;;;;29.38;12.65;;;230.50;2099.20;;;;;;4979983;28;20108;-60
2021/12/05 15:52:31;;;;;;;18.38;11.65;;;230.50;2073.60;;;;;;4995266;28;20059;-59
2021/12/05 15:54:58;;;;;;;24.88;14.82;;;230.50;2073.60;;;;;;4997895;28;20115;-59
2021/12/05 15:57:36;;;;;;;33.10;18.90;;;230.50;2073.60;;;;;;5002891;28;20038;-59
2021/12/05 16:00:18;;;;;;;31.17;17.50;;;230.40;2073.60;;;;;;5015012;28;20037;-59
2021/12/05 16:02:47;;;;;;;44.33;19.33;;;230.40;2073.60;;;;;;5014747;28;20443;-60
2021/12/05 16:05:18;;;;;;;39.70;17.30;;;230.50;2099.20;;;;;;5014797;28;20045;-60
2021/12/05 16:07:45;;;;;;;26.67;16.20;;;230.60;2073.60;;;;;;4997886;28;20034;-60
2021/12/05 16:10:21;;;;;;;23.75;14.75;;;230.60;2048.00;;;;;;5014625;28;20126;-60
2021/12/05 16:12:49;;;;;;;40.03;20.63;;;230.50;2022.40;;;;;;5014599;28;20173;-60
2021/12/05 16:15:17;;;;;;;35.13;21.75;;;230.50;2048.00;;;;;;5014313;28;20026;-57
2021/12/05 16:17:59;;;;;;;29.15;19.30;;;230.50;2048.00;;;;;;5004527;28;20164;-60
2021/12/05 16:20:40;;;;;;;31.65;21.13;;;230.40;2073.60;;;;;;4994292;28;20026;-58
2021/12/05 16:23:09;;;;;;;30.63;19.65;;;230.40;2048.00;;;;;;5028462;28;20033;-60
2021/12/05 16:25:42;;;;;;;26.48;16.58;;;230.40;2022.40;;;;;;5079180;28;20021;-59
2021/12/05 16:28:12;;;;;;;27.58;17.27;;;230.40;2048.00;;;;;;5070683;28;20074;-63
2021/12/05 16:30:45;;;;;;;28.85;16.70;;;230.40;2022.40;;;;;;5075196;28;20158;-60
2021/12/05 16:33:14;;;;;;;26.25;16.60;;;230.40;2022.40;;;;;;5073316;28;20133;-60
2021/12/05 16:35:43;;;;;;;19.27;12.52;;;205.70;2048.00;;;;;;5074996;28;20032;-60
2021/12/05 16:38:34;;;;;;;19.13;12.10;;;205.70;2048.00;;;;;;5074976;28;20043;-59
2021/12/05 16:41:06;;;;;;;26.73;15.38;;;205.60;2048.00;;;;;;5074544;28;20024;-58
2021/12/05 16:43:35;;;;;;;31.83;18.23;;;205.60;2022.40;;;;;;5075193;28;20433;-59
2021/12/05 16:46:29;;;;;;;30.88;19.23;;;205.60;2048.00;;;;;;5074773;28;20028;-59
2021/12/05 16:48:58;;;;;;;28.50;16.58;;;205.60;2022.40;;;;;;5075164;28;20097;-59
2021/12/05 16:51:28;;;;;;;26.05;16.35;;;205.60;2048.00;;;;;;5074286;28;20082;-60
2021/12/05 16:54:02;;;;;;;23.70;15.43;;;205.60;2048.00;;;;;;5074767;28;20379;-59
2021/12/05 16:56:49;;;;;;;35.03;19.77;;;205.60;2022.40;;;;;;5074445;28;20032;-58
2021/12/05 16:59:38;;;;;;;52.25;28.35;;;205.60;2048.00;;;;;;5074594;28;20020;-58
2021/12/05 17:02:27;;;;;;;41.50;21.80;;;205.50;2022.40;;;;;;5074225;28;20024;-59
2021/12/05 17:05:01;;;;;;;40.63;22.45;;;205.50;2048.00;;;;;;5074691;28;20031;-58
2021/12/05 17:07:38;;;;;;;31.17;18.57;;;205.50;2048.00;;;;;;5074413;28;20027;-60
2021/12/05 17:10:11;;;;;;;31.25;17.30;;;205.40;2073.60;;;;;;5074186;28;20292;-57
2021/12/05 17:12:37;;;;;;;32.13;18.93;;;205.40;2048.00;;;;;;5074643;28;20037;-59
2021/12/05 17:15:28;;;;;;;34.70;21.33;;;205.40;2048.00;;;;;;5074460;28;20860;-59
2021/12/05 17:18:02;;;;;;;66.43;29.40;;;205.40;2073.60;;;;;;5073789;28;20020;-59
2021/12/05 17:20:42;;;;;;;92.07;39.47;;;205.40;2048.00;;;;;;5074322;28;20075;-58
2021/12/05 17:23:30;;;;;;;93.25;37.13;;;205.30;2073.60;;;;;;5074140;28;20378;-58
2021/12/05 17:26:18;;;;;;;78.72;34.30;;;205.40;2073.60;;;;;;5072240;28;20036;-58
2021/12/05 17:28:54;;;;;;;60.35;26.98;;;205.30;2099.20;;;;;;5074064;28;20025;-60
2021/12/05 17:31:40;;;;;;;41.50;23.05;;;205.40;2073.60;;;;;;5073827;28;20168;-58
2021/12/05 17:34:10;;;;;;;34.03;21.20;;;205.40;2073.60;;;;;;5074113;28;20115;-58
2021/12/05 17:36:42;;;;;;;44.60;25.70;;;205.40;2073.60;;;;;;5073910;28;20016;-59
2021/12/05 17:39:18;;;;;;;36.10;20.40;;;205.50;2073.60;;;;;;5073521;28;20036;-59
2021/12/05 17:41:50;;;;;;;30.73;18.15;;;205.40;2099.20;;;;;;5073673;28;20020;-60
2021/12/05 17:44:18;;;;;;;29.90;17.45;;;205.50;2073.60;;;;;;5071939;28;20036;-57
2021/12/05 17:46:47;;;;;;;43.10;24.83;;;205.70;2073.60;;;;;;5073490;28;20067;-58
2021/12/05 17:49:15;;;;;;;65.57;34.80;;;205.60;2048.00;;;;;;5073732;28;20085;-59
2021/12/05 17:51:42;;;;;;;82.20;40.60;;;205.60;2073.60;;;;;;5073856;28;20488;-57